Latest Weather Observations for Sydney Airport

IDN60801

Issued at 6:03 am EST Wednesday 22 September 2021 (issued every 10 minutes, with the page automatically refreshed every 10 minutes)

About weather observations | Map of weather stations | Latest weather observations for NSW | Other Formats
Station Details ID: 066037 Name: SYDNEY AIRPORT AMO Lat: -33.95 Lon: 151.17 Height: 6.0 m
Data from the previous 72 hours. | See also: Recent months at Sydney Airport
Date/Time
EST
Temp
°C
App
Temp
°C
Dew
Point
°C
Rel
Hum
%
Delta-T
°C
Wind Press
QNH
hPa
Press
MSL
hPa
Rain since
9am
mm
Dir  Spd
km/h
Gust
km/h
Spd
kts
Gust
kts
22/05:30am 8.8 3.8 4.4 74 1.9 W 20 28 11 15 1022.4 1022.4 3.0
22/05:00am 8.8 3.1 4.8 76 1.8 WSW 24 28 13 15 1022.4 1022.4 3.0
22/04:30am 9.1 4.3 5.5 78 1.6 WSW 20 33 11 18 1022.2 1022.2 3.0
22/04:00am 8.7 3.1 5.4 80 1.5 WSW 24 28 13 15 1022.1 1022.1 3.0
22/03:30am 9.6 4.8 5.6 76 1.8 WSW 20 24 11 13 1022.0 1022.0 3.0
22/03:00am 9.8 3.5 5.8 76 1.8 SW 28 33 15 18 1022.1 1022.1 3.0
22/02:30am 10.8 5.5 6.9 77 1.8 SW 24 28 13 15 1022.2 1022.2 3.0
22/02:00am 10.0 5.4 6.5 79 1.6 SW 20 26 11 14 1022.5 1022.5 3.0
22/01:30am 10.2 6.5 6.5 78 1.7 WSW 15 20 8 11 1022.9 1022.9 3.0
22/01:00am 10.6 6.7 7.3 80 1.6 WSW 17 22 9 12 1023.3 1023.3 3.0
22/12:30am 10.7 4.9 7.8 82 1.4 SW 28 37 15 20 1023.5 1023.5 3.0
22/12:00am 11.8 4.9 8.8 82 1.5 SSW 35 46 19 25 1023.6 1023.6 2.0
 
Date/Time
EST
Temp
°C
App
Temp
°C
Dew
Point
°C
Rel
Hum
%
Delta-T
°C
Wind Press
QNH
hPa
Press
MSL
hPa
Rain since
9am
mm
Dir  Spd
km/h
Gust
km/h
Spd
kts
Gust
kts
21/11:30pm 11.7 5.3 8.6 81 1.5 SW 32 41 17 22 1023.5 1023.5 1.6
21/11:00pm 12.4 6.3 8.1 75 2.1 SSW 30 37 16 20 1023.1 1023.1 1.0
21/10:30pm 11.8 5.1 8.1 78 1.8 SW 33 48 18 26 1023.4 1023.4 0.4
21/10:00pm 12.4 5.6 7.7 73 2.3 SW 33 50 18 27 1023.4 1023.4 0.0
21/09:30pm 14.2 7.4 7.9 66 3.1 SSW 33 50 18 27 1023.1 1023.1 0.0
21/09:00pm 13.8 5.9 7.8 67 2.9 S 39 50 21 27 1022.4 1022.4 0.0
21/08:30pm 13.9 7.0 8.7 71 2.6 S 35 46 19 25 1022.1 1022.1 0.0
21/08:23pm 13.9 6.1 8.3 69 2.8 S 39 57 21 31 1022.0 1022.0 0.0
21/08:00pm 14.3 5.8 8.7 69 2.8 SSE 43 56 23 30 1021.6 1021.6 0.0
21/07:30pm 14.6 6.4 8.3 66 3.2 S 41 52 22 28 1021.2 1021.2 0.0
21/07:00pm 14.4 5.5 7.5 63 3.4 S 44 54 24 29 1020.8 1020.8 0.0
21/06:30pm 14.3 5.3 7.4 63 3.4 S 44 57 24 31 1020.4 1020.4 0.0
21/06:00pm 14.5 5.9 8.0 65 3.2 S 43 54 23 29 1020.0 1020.0 0.0
21/05:30pm 14.3 5.3 7.1 62 3.5 S 44 57 24 31 1019.6 1019.6 0.0
21/05:00pm 14.7 5.2 6.5 58 4.0 S 46 57 25 31 1019.4 1019.4 0.0
21/04:30pm 14.7 5.1 6.3 57 4.0 S 46 57 25 31 1018.9 1018.9 0.0
21/04:00pm 14.9 5.0 4.6 50 4.8 SSW 46 61 25 33 1018.6 1018.6 0.0
21/03:30pm 14.9 4.8 7.2 60 3.8 S 50 65 27 35 1018.2 1018.2 0.0
21/03:18pm 14.8 5.8 7.1 60 3.8 SSW 44 63 24 34 1018.0 1018.0 0.0
21/03:00pm 14.7 4.5 6.8 59 3.8 S 50 61 27 33 1017.9 1017.9 0.0
21/02:30pm 14.8 3.6 5.9 55 4.3 S 54 72 29 39 1017.5 1017.5 0.0
21/02:17pm 14.7 3.9 5.8 55 4.2 S 52 74 28 40 1017.3 1017.3 0.0
21/02:00pm 14.6 3.7 7.2 61 3.6 S 54 69 29 37 1017.1 1017.1 0.0
21/01:30pm 15.0 5.4 6.3 56 4.2 S 46 63 25 34 1017.1 1017.1 0.0
21/01:00pm 14.6 4.9 5.7 55 4.2 S 46 63 25 34 1017.0 1017.0 0.0
21/12:48pm 14.7 5.2 6.5 58 4.0 S 46 65 25 35 1016.9 1016.9 0.0
21/12:30pm 14.5 4.3 5.0 53 4.4 S 48 59 26 32 1016.8 1016.8 0.0
21/12:06pm 14.5 5.1 4.5 51 4.6 S 43 61 23 33 1016.8 1016.8 0.0
21/12:00pm 14.8 5.4 5.6 54 4.4 S 44 57 24 31 1016.9 1016.9 0.0
21/11:47am 14.7 6.0 4.1 49 4.9 S 39 57 21 31 1016.9 1016.9 0.0
21/11:30am 14.4 5.4 2.6 45 5.2 SSW 39 52 21 28 1016.9 1016.9 0.0
21/11:00am 14.0 5.4 2.6 46 5.0 SSW 37 52 20 28 1016.9 1016.9 0.0
21/10:30am 13.2 5.3 4.6 56 3.9 SSW 35 50 19 27 1016.8 1016.8 0.0
21/10:00am 13.1 4.3 3.5 52 4.3 SSW 39 52 21 28 1016.6 1016.6 0.0
21/09:30am 13.2 4.8 3.6 52 4.3 SSW 37 57 20 31 1016.3 1016.3 0.0
21/09:08am 12.9 5.6 2.2 48 4.6 SSW 30 48 16 26 1016.0 1016.0 0.0
21/09:00am 12.4 5.2 0.5 44 4.9 SSW 28 35 15 19 1016.1 1016.1 0.0
21/08:30am 12.0 4.1 0.8 46 4.7 WSW 32 39 17 21 1016.0 1016.0 0.0
21/08:00am 11.2 2.4 -0.9 43 4.8 WSW 35 50 19 27 1015.7 1015.7 0.0
21/07:30am 10.5 1.7 -0.9 45 4.5 WSW 35 48 19 26 1015.4 1015.4 0.0
21/07:00am 10.1 1.4 -0.7 47 4.3 WSW 35 46 19 25 1015.1 1015.1 0.0
21/06:30am 9.9 2.6 0.0 50 4.0 WSW 28 37 15 20 1014.5 1014.5 0.0
21/06:00am 10.1 3.2 0.4 51 3.9 W 26 32 14 17 1014.0 1014.0 0.0
21/05:30am 10.5 3.2 -0.3 47 4.3 WSW 28 35 15 19 1013.9 1013.9 0.0
21/05:00am 10.8 3.2 0.8 50 4.1 WSW 30 37 16 20 1013.3 1013.3 0.0
21/04:30am 11.1 3.3 1.6 52 4.0 W 32 37 17 20 1013.1 1013.1 0.0
21/04:00am 11.4 4.1 2.2 53 3.9 WSW 30 37 16 20 1013.1 1013.1 0.0
21/03:30am 11.6 5.1 2.9 55 3.8 SW 26 35 14 19 1013.1 1013.1 0.0
21/03:00am 11.4 5.9 4.2 61 3.2 SSW 22 30 12 16 1013.0 1013.0 0.0
21/02:30am 11.7 6.8 5.1 64 3.0 SSW 20 26 11 14 1013.1 1013.1 0.0
21/02:00am 11.8 6.8 3.8 58 3.6 SSW 19 26 10 14 1012.9 1012.9 0.0
21/01:30am 12.0 7.1 4.0 58 3.6 SSW 19 24 10 13 1012.9 1012.9 0.0
21/01:00am 12.5 8.1 4.5 58 3.6 SSW 17 19 9 10 1013.0 1013.0 0.0
21/12:30am 12.8 8.3 4.0 55 4.0 SSW 17 20 9 11 1013.3 1013.3 0.0
21/12:00am 13.2 9.4 3.8 53 4.2 SSW 13 17 7 9 1013.6 1013.6 0.0
 
Date/Time
EST
Temp
°C
App
Temp
°C
Dew
Point
°C
Rel
Hum
%
Delta-T
°C
Wind Press
QNH
hPa
Press
MSL
hPa
Rain since
9am
mm
Dir  Spd
km/h
Gust
km/h
Spd
kts
Gust
kts
20/11:30pm 13.3 7.8 3.9 53 4.3 SW 22 30 12 16 1013.5 1013.5 0.0
20/11:00pm 13.0 8.2 2.8 50 4.5 SW 17 26 9 14 1013.5 1013.5 0.0
20/10:30pm 13.2 7.4 2.4 48 4.7 WNW 22 32 12 17 1013.5 1013.5 0.0
20/10:00pm 12.7 6.0 3.4 53 4.1 W 28 37 15 20 1013.2 1013.2 0.0
20/09:30pm 13.3 4.3 2.2 47 4.8 W 39 54 21 29 1013.7 1013.7 0.0
20/09:00pm 13.5 5.5 1.8 45 5.1 W 33 41 18 22 1013.5 1013.5 0.0
20/08:30pm 13.8 4.6 1.5 43 5.3 W 39 50 21 27 1013.2 1013.2 0.0
20/08:00pm 14.1 3.3 1.7 43 5.4 WSW 48 69 26 37 1012.8 1012.8 0.0
20/07:30pm 14.3 2.3 3.5 48 4.9 WSW 56 78 30 42 1012.0 1012.0 0.0
20/07:08pm 14.7 3.5 4.1 49 4.9 SW 52 70 28 38 1011.6 1011.6 0.0
20/07:00pm 15.3 3.7 5.8 53 4.6 SW 56 70 30 38 1011.6 1011.6 0.0
20/06:55pm 16.3 5.9 5.9 50 5.0 SW 50 70 27 38 1011.3 1011.3 0.0
20/06:30pm 19.0 8.5 5.8 42 6.5 SW 50 61 27 33 1010.2 1010.2 0.0
20/06:17pm 20.9 14.0 2.7 30 8.5 W 28 57 15 31 1009.6 1009.6 0.0
20/06:00pm 23.5 16.9 -0.7 20 10.9 W 24 33 13 18 1008.8 1008.8 0.0
20/05:30pm 24.1 15.3 -0.9 19 11.2 WNW 35 46 19 25 1008.4 1008.4 0.0
20/05:00pm 24.2 15.6 -2.4 17 11.6 WNW 33 50 18 27 1008.1 1008.1 0.0
20/04:45pm 24.2 15.1 -4.0 15 11.9 WNW 35 54 19 29 1008.1 1008.1 0.0
20/04:30pm 25.3 15.1 -3.2 15 12.4 WNW 41 52 22 28 1007.8 1007.8 0.0
20/04:00pm 25.9 16.8 -3.6 14 12.8 WNW 35 52 19 28 1007.5 1007.5 0.0
20/03:30pm 26.2 17.0 -1.6 16 12.5 WNW 37 52 20 28 1007.4 1007.4 0.0
20/03:00pm 26.6 17.6 -3.1 14 13.1 WNW 35 50 19 27 1007.5 1007.5 0.0
20/02:46pm 26.4 16.2 -3.2 14 13.0 WNW 41 57 22 31 1007.5 1007.5 0.0
20/02:38pm 25.9 16.0 -3.6 14 12.8 NW 39 57 21 31 1007.5 1007.5 0.0
20/02:30pm 26.3 16.1 -3.3 14 12.9 NW 41 52 22 28 1007.6 1007.6 0.0
20/02:12pm 26.5 17.5 -3.1 14 13.0 WNW 35 57 19 31 1007.7 1007.7 0.0
20/02:03pm 27.0 18.1 -1.8 15 13.0 WNW 35 46 19 25 1007.7 1007.7 0.0
20/02:00pm 26.8 17.0 -2.9 14 13.2 NW 39 52 21 28 1007.7 1007.7 0.0
20/01:30pm 26.7 17.0 -2.1 15 12.9 WNW 39 54 21 29 1008.2 1008.2 0.0
20/01:00pm 25.9 16.1 -2.7 15 12.6 NW 39 54 21 29 1008.8 1008.8 0.0
20/12:58pm 26.0 16.6 -2.6 15 12.6 WNW 37 52 20 28 1008.9 1008.9 0.0
20/12:30pm 26.2 19.0 -2.4 15 12.7 W 26 35 14 19 1009.6 1009.6 0.0
20/12:00pm 24.9 18.4 0.4 20 11.4 NNW 24 32 13 17 1010.3 1010.3 0.0
20/11:30am 24.5 17.7 0.8 21 11.0 NW 26 39 14 21 1011.1 1011.1 0.0
20/11:00am 23.6 17.0 -0.6 20 10.9 NNW 24 35 13 19 1011.9 1011.9 0.0
20/10:30am 23.1 17.5 0.2 22 10.4 NNW 19 30 10 16 1012.5 1012.5 0.0
20/10:00am 22.5 16.2 1.5 25 9.7 N 24 32 13 17 1013.0 1013.0 0.0
20/09:30am 22.1 15.6 0.6 24 9.8 N 24 30 13 16 1013.4 1013.4 0.0
20/09:00am 20.9 14.2 1.7 28 8.8 NNW 26 32 14 17 1014.1 1014.1 0.0
20/08:30am 20.1 14.2 1.5 29 8.5 NNW 22 30 12 16 1014.4 1014.4 0.0
20/08:00am 18.9 13.1 2.3 33 7.6 N 22 30 12 16 1014.6 1014.6 0.0
20/07:30am 17.8 11.6 2.2 35 7.1 N 24 28 13 15 1014.7 1014.7 0.0
20/07:00am 16.6 10.9 3.0 40 6.2 N 22 28 12 15 1014.6 1014.6 0.0
20/06:30am 15.2 10.0 2.7 43 5.6 N 19 24 10 13 1014.5 1014.5 0.0
20/06:00am 15.0 9.8 2.2 42 5.7 N 19 20 10 11 1014.6 1014.6 0.0
20/05:30am 14.0 8.9 3.2 48 4.8 N 19 20 10 11 1014.8 1014.8 0.0
20/05:00am 14.3 9.7 3.5 48 4.9 N 17 19 9 10 1014.8 1014.8 0.0
20/04:30am 14.4 9.7 3.2 47 5.0 N 17 19 9 10 1015.0 1015.0 0.0
20/04:00am 13.9 9.6 3.1 48 4.8 NNW 15 17 8 9 1015.2 1015.2 0.0
20/03:30am 14.3 10.0 3.5 48 4.9 NNW 15 15 8 8 1015.4 1015.4 0.0
20/03:00am 14.0 9.4 3.5 49 4.7 NNW 17 19 9 10 1015.7 1015.7 0.0
20/02:30am 14.1 9.6 4.4 52 4.5 N 17 19 9 10 1016.1 1016.1 0.0
20/02:00am 13.8 9.3 4.4 53 4.3 N 17 20 9 11 1016.5 1016.5 0.0
20/01:30am 14.0 9.9 4.6 53 4.3 N 15 17 8 9 1017.1 1017.1 0.0
20/01:00am 13.9 9.8 4.2 52 4.4 NNW 15 17 8 9 1017.6 1017.6 0.0
20/12:30am 15.3 11.5 3.8 46 5.3 NNW 13 15 7 8 1017.9 1017.9 0.0
20/12:00am 15.8 11.5 3.3 43 5.7 NW 15 17 8 9 1018.1 1018.1 0.0
 
Date/Time
EST
Temp
°C
App
Temp
°C
Dew
Point
°C
Rel
Hum
%
Delta-T
°C
Wind Press
QNH
hPa
Press
MSL
hPa
Rain since
9am
mm
Dir  Spd
km/h
Gust
km/h
Spd
kts
Gust
kts
19/11:30pm 16.2 11.7 2.2 39 6.3 WNW 15 17 8 9 1018.3 1018.3 0.0
19/11:00pm 15.6 11.4 1.7 39 6.1 WNW 13 15 7 8 1018.5 1018.5 0.0
19/10:30pm 15.9 11.2 0.9 36 6.5 WNW 15 24 8 13 1018.8 1018.8 0.0
19/10:00pm 16.3 11.7 1.6 37 6.5 W 15 19 8 10 1018.9 1018.9 0.0
19/09:30pm 16.8 12.0 0.5 33 7.1 W 15 24 8 13 1019.0 1019.0 0.0
19/09:00pm 18.0 10.7 0.2 30 7.7 W 28 33 15 18 1019.0 1019.0 0.0
19/08:30pm 18.3 10.5 -0.5 28 8.1 W 30 37 16 20 1018.8 1018.8 0.0
19/08:00pm 18.7 10.3 -0.7 27 8.3 W 33 41 18 22 1018.8 1018.8 0.0
19/07:30pm 19.2 11.5 -0.2 27 8.5 W 30 35 16 19 1018.4 1018.4 0.0
19/07:00pm 19.3 12.4 0.4 28 8.3 W 26 33 14 18 1018.3 1018.3 0.0
19/06:30pm 20.4 13.8 -0.3 25 9.1 W 24 32 13 17 1017.9 1017.9 0.0
19/06:00pm 21.3 14.7 -0.6 23 9.6 WNW 24 32 13 17 1017.8 1017.8 0.0
19/05:30pm 22.0 14.5 -1.3 21 10.2 WNW 28 35 15 19 1017.5 1017.5 0.0
19/05:00pm 22.7 16.2 -2.1 19 10.7 WNW 22 32 12 17 1017.1 1017.1 0.0
19/04:30pm 23.3 16.6 -0.9 20 10.8 WNW 24 32 13 17 1016.9 1016.9 0.0
19/04:00pm 23.5 15.8 -0.1 21 10.7 W 30 37 16 20 1016.7 1016.7 0.0
19/03:30pm 23.9 16.6 0.3 21 10.8 WNW 28 37 15 20 1016.8 1016.8 0.0
19/03:00pm 23.4 16.7 1.7 24 10.2 WNW 26 35 14 19 1017.1 1017.1 0.0
19/02:30pm 23.2 16.6 -0.3 21 10.6 WNW 24 39 13 21 1017.4 1017.4 0.0
19/02:00pm 23.2 17.2 0.9 23 10.3 WNW 22 37 12 20 1017.7 1017.7 0.0
19/01:30pm 23.0 16.4 -0.5 21 10.5 WNW 24 32 13 17 1018.2 1018.2 0.0
19/01:00pm 22.7 15.5 0.5 23 10.1 WNW 28 37 15 20 1018.5 1018.5 0.0
19/12:30pm 21.9 14.2 -0.1 23 9.8 W 30 41 16 22 1019.2 1019.2 0.0
19/12:00pm 21.1 14.1 -0.8 23 9.6 WNW 26 37 14 20 1019.9 1019.9 0.0
19/11:45am 21.3 13.9 -0.6 23 9.7 WNW 28 46 15 25 1020.1 1020.1 0.0
19/11:30am 21.4 14.5 0.0 24 9.6 WNW 26 35 14 19 1020.6 1020.6 0.0
19/11:00am 21.0 14.7 1.3 27 9.0 WNW 24 39 13 21 1021.1 1021.1 0.0
19/10:30am 19.4 11.5 0.9 29 8.3 W 32 39 17 21 1021.6 1021.6 0.0
19/10:00am 18.6 12.2 0.7 30 7.9 WNW 24 33 13 18 1021.9 1021.9 0.0
19/09:30am 18.0 12.5 1.9 34 7.3 WNW 20 30 11 16 1022.2 1022.2 0.0
19/09:00am 17.3 11.7 0.9 33 7.2 NW 20 30 11 16 1022.4 1022.4 2.4
19/08:30am 16.7 11.3 2.7 39 6.4 NNW 20 28 11 15 1022.6 1022.6 2.4
19/08:00am 15.8 11.6 3.9 45 5.5 NNW 15 19 8 10 1022.7 1022.7 2.4
19/07:30am 14.3 10.2 4.6 52 4.5 NNW 15 19 8 10 1022.9 1022.9 2.4
19/07:00am 13.3 9.2 4.2 54 4.1 NW 15 19 8 10 1023.0 1023.0 2.4
19/06:30am 11.9 8.1 3.7 57 3.6 NW 13 15 7 8 1022.8 1022.8 2.4

Other formats

Comma delimited format used in spreadsheet applications
http://www.bom.gov.au/fwo/IDN60801/IDN60801.94767.axf

JavaScript Object Notation format (JSON) in row-major order
http://www.bom.gov.au/fwo/IDN60801/IDN60801.94767.json

Data quality

Most of these data are generated automatically and are frequently updated. Quality checks on data are not normally performed. It is possible for incorrect values to appear. Refer to information at About Latest Weather Observations and please check the disclaimer before using these data.